sensor_id;sensor_type;location;lat;lon;timestamp;temperature;humidity
13856;DHT22;6998;53.608;9.958;2023-07-13T00:02:04;16.50;99.90
13856;DHT22;6998;53.608;9.958;2023-07-13T00:04:32;16.40;99.90
13856;DHT22;6998;53.608;9.958;2023-07-13T00:06:59;16.30;99.90
13856;DHT22;6998;53.608;9.958;2023-07-13T00:09:25;16.30;99.90
13856;DHT22;6998;53.608;9.958;2023-07-13T00:11:55;16.20;99.90
13856;DHT22;6998;53.608;9.958;2023-07-13T00:14:24;16.10;99.90
13856;DHT22;6998;53.608;9.958;2023-07-13T00:16:51;16.10;99.90
13856;DHT22;6998;53.608;9.958;2023-07-13T00:19:18;16.10;99.90
13856;DHT22;6998;53.608;9.958;2023-07-13T00:21:46;16.00;99.90
13856;DHT22;6998;53.608;9.958;2023-07-13T00:24:15;16.00;99.90
13856;DHT22;6998;53.608;9.958;2023-07-13T00:26:44;15.90;99.90
13856;DHT22;6998;53.608;9.958;2023-07-13T00:29:11;15.80;99.90
13856;DHT22;6998;53.608;9.958;2023-07-13T00:31:38;15.90;99.90
13856;DHT22;6998;53.608;9.958;2023-07-13T00:34:05;15.80;99.90
13856;DHT22;6998;53.608;9.958;2023-07-13T00:36:32;15.80;99.90
13856;DHT22;6998;53.608;9.958;2023-07-13T00:39:00;15.80;99.90
13856;DHT22;6998;53.608;9.958;2023-07-13T00:41:26;15.80;99.90
13856;DHT22;6998;53.608;9.958;2023-07-13T00:43:53;15.70;99.90
13856;DHT22;6998;53.608;9.958;2023-07-13T00:46:24;15.60;99.90
13856;DHT22;6998;53.608;9.958;2023-07-13T00:48:53;15.60;99.90
13856;DHT22;6998;53.608;9.958;2023-07-13T00:51:25;15.60;99.90
13856;DHT22;6998;53.608;9.958;2023-07-13T00:53:54;15.50;99.90
13856;DHT22;6998;53.608;9.958;2023-07-13T00:56:24;15.50;99.90
13856;DHT22;6998;53.608;9.958;2023-07-13T00:58:52;15.50;99.90
13856;DHT22;6998;53.608;9.958;2023-07-13T01:01:19;15.40;99.90
13856;DHT22;6998;53.608;9.958;2023-07-13T01:03:46;15.40;99.90
13856;DHT22;6998;53.608;9.958;2023-07-13T01:06:13;15.40;99.90
13856;DHT22;6998;53.608;9.958;2023-07-13T01:08:40;15.40;99.90
13856;DHT22;6998;53.608;9.958;2023-07-13T01:11:07;15.30;99.90
13856;DHT22;6998;53.608;9.958;2023-07-13T01:13:35;15.30;99.90
13856;DHT22;6998;53.608;9.958;2023-07-13T01:16:05;15.30;99.90
13856;DHT22;6998;53.608;9.958;2023-07-13T01:18:38;15.30;99.90
13856;DHT22;6998;53.608;9.958;2023-07-13T01:21:07;15.20;99.90
13856;DHT22;6998;53.608;9.958;2023-07-13T01:23:33;15.20;99.90
13856;DHT22;6998;53.608;9.958;2023-07-13T01:26:01;15.20;99.90
13856;DHT22;6998;53.608;9.958;2023-07-13T01:28:28;15.10;99.90
13856;DHT22;6998;53.608;9.958;2023-07-13T01:30:58;15.00;99.90
13856;DHT22;6998;53.608;9.958;2023-07-13T01:33:25;15.00;99.90
13856;DHT22;6998;53.608;9.958;2023-07-13T01:35:52;15.00;99.90
13856;DHT22;6998;53.608;9.958;2023-07-13T01:38:23;15.00;99.90
13856;DHT22;6998;53.608;9.958;2023-07-13T01:40:50;14.90;99.90
13856;DHT22;6998;53.608;9.958;2023-07-13T01:43:17;14.90;99.90
13856;DHT22;6998;53.608;9.958;2023-07-13T01:45:44;14.90;99.90
13856;DHT22;6998;53.608;9.958;2023-07-13T01:48:11;14.90;99.90
13856;DHT22;6998;53.608;9.958;2023-07-13T01:50:38;14.80;99.90
13856;DHT22;6998;53.608;9.958;2023-07-13T01:53:05;14.90;99.90
13856;DHT22;6998;53.608;9.958;2023-07-13T01:55:33;14.90;99.90
13856;DHT22;6998;53.608;9.958;2023-07-13T01:58:00;14.90;99.90
13856;DHT22;6998;53.608;9.958;2023-07-13T02:00:28;15.00;99.90
13856;DHT22;6998;53.608;9.958;2023-07-13T02:02:54;15.00;99.90
13856;DHT22;6998;53.608;9.958;2023-07-13T02:05:21;15.00;99.90
13856;DHT22;6998;53.608;9.958;2023-07-13T02:07:48;14.90;99.90
13856;DHT22;6998;53.608;9.958;2023-07-13T02:10:15;14.90;99.90
13856;DHT22;6998;53.608;9.958;2023-07-13T02:12:44;14.80;99.90
13856;DHT22;6998;53.608;9.958;2023-07-13T02:15:10;14.80;99.90
13856;DHT22;6998;53.608;9.958;2023-07-13T02:17:37;14.80;99.90
13856;DHT22;6998;53.608;9.958;2023-07-13T02:20:05;14.70;99.90
13856;DHT22;6998;53.608;9.958;2023-07-13T02:22:33;14.70;99.90
13856;DHT22;6998;53.608;9.958;2023-07-13T02:25:00;14.70;99.90
13856;DHT22;6998;53.608;9.958;2023-07-13T02:27:27;14.80;99.90
13856;DHT22;6998;53.608;9.958;2023-07-13T02:29:55;14.70;99.90
13856;DHT22;6998;53.608;9.958;2023-07-13T02:32:22;14.70;99.90
13856;DHT22;6998;53.608;9.958;2023-07-13T02:34:50;14.70;99.90
13856;DHT22;6998;53.608;9.958;2023-07-13T02:37:17;14.80;99.90
13856;DHT22;6998;53.608;9.958;2023-07-13T02:39:44;14.80;99.90
13856;DHT22;6998;53.608;9.958;2023-07-13T02:42:11;14.80;99.90
13856;DHT22;6998;53.608;9.958;2023-07-13T02:44:37;14.80;99.90
13856;DHT22;6998;53.608;9.958;2023-07-13T02:47:06;14.80;99.90
13856;DHT22;6998;53.608;9.958;2023-07-13T02:49:33;14.90;99.90
13856;DHT22;6998;53.608;9.958;2023-07-13T02:52:00;14.90;99.90
13856;DHT22;6998;53.608;9.958;2023-07-13T02:54:26;14.80;99.90
13856;DHT22;6998;53.608;9.958;2023-07-13T02:56:53;14.80;99.90
13856;DHT22;6998;53.608;9.958;2023-07-13T02:59:20;14.80;99.90
13856;DHT22;6998;53.608;9.958;2023-07-13T03:01:47;14.70;99.90
13856;DHT22;6998;53.608;9.958;2023-07-13T03:04:15;14.70;99.90
13856;DHT22;6998;53.608;9.958;2023-07-13T03:06:45;14.70;99.90
13856;DHT22;6998;53.608;9.958;2023-07-13T03:09:12;14.70;99.90
13856;DHT22;6998;53.608;9.958;2023-07-13T03:11:39;14.80;99.90
13856;DHT22;6998;53.608;9.958;2023-07-13T03:14:06;14.80;99.90
13856;DHT22;6998;53.608;9.958;2023-07-13T03:16:33;14.80;99.90
13856;DHT22;6998;53.608;9.958;2023-07-13T03:19:00;14.80;99.90
13856;DHT22;6998;53.608;9.958;2023-07-13T03:21:28;14.80;99.90
13856;DHT22;6998;53.608;9.958;2023-07-13T03:23:55;14.90;99.90
13856;DHT22;6998;53.608;9.958;2023-07-13T03:26:21;14.90;99.90
13856;DHT22;6998;53.608;9.958;2023-07-13T03:28:48;14.90;99.90
13856;DHT22;6998;53.608;9.958;2023-07-13T03:31:17;14.80;99.90
13856;DHT22;6998;53.608;9.958;2023-07-13T03:33:45;14.80;99.90
13856;DHT22;6998;53.608;9.958;2023-07-13T03:36:14;14.80;99.90
13856;DHT22;6998;53.608;9.958;2023-07-13T03:38:46;14.80;99.90
13856;DHT22;6998;53.608;9.958;2023-07-13T03:41:13;14.90;99.90
13856;DHT22;6998;53.608;9.958;2023-07-13T03:43:40;14.90;99.90
13856;DHT22;6998;53.608;9.958;2023-07-13T03:46:07;14.90;99.90
13856;DHT22;6998;53.608;9.958;2023-07-13T03:48:34;14.90;99.90
13856;DHT22;6998;53.608;9.958;2023-07-13T03:51:01;14.90;99.90
13856;DHT22;6998;53.608;9.958;2023-07-13T03:53:28;14.80;99.90
13856;DHT22;6998;53.608;9.958;2023-07-13T03:55:56;14.80;99.90
13856;DHT22;6998;53.608;9.958;2023-07-13T03:58:29;14.80;99.90
13856;DHT22;6998;53.608;9.958;2023-07-13T04:00:57;14.80;99.90
13856;DHT22;6998;53.608;9.958;2023-07-13T04:03:24;14.90;99.90
13856;DHT22;6998;53.608;9.958;2023-07-13T04:05:54;14.90;99.90
13856;DHT22;6998;53.608;9.958;2023-07-13T04:08:25;14.90;99.90
13856;DHT22;6998;53.608;9.958;2023-07-13T04:10:53;14.90;99.90
13856;DHT22;6998;53.608;9.958;2023-07-13T04:13:21;14.90;99.90
13856;DHT22;6998;53.608;9.958;2023-07-13T04:15:48;15.00;99.90
13856;DHT22;6998;53.608;9.958;2023-07-13T04:18:15;15.00;99.90
13856;DHT22;6998;53.608;9.958;2023-07-13T04:20:42;15.10;99.90
13856;DHT22;6998;53.608;9.958;2023-07-13T04:23:09;15.10;99.90
13856;DHT22;6998;53.608;9.958;2023-07-13T04:25:35;15.10;99.90
13856;DHT22;6998;53.608;9.958;2023-07-13T04:28:03;15.10;99.90
13856;DHT22;6998;53.608;9.958;2023-07-13T04:30:31;15.10;99.90
13856;DHT22;6998;53.608;9.958;2023-07-13T04:32:58;15.10;99.90
13856;DHT22;6998;53.608;9.958;2023-07-13T04:35:25;15.10;99.90
13856;DHT22;6998;53.608;9.958;2023-07-13T04:37:51;15.20;99.90
13856;DHT22;6998;53.608;9.958;2023-07-13T04:40:19;15.20;99.90
13856;DHT22;6998;53.608;9.958;2023-07-13T04:42:46;15.20;99.90
13856;DHT22;6998;53.608;9.958;2023-07-13T04:45:14;15.30;99.90
13856;DHT22;6998;53.608;9.958;2023-07-13T04:47:42;15.40;99.90
13856;DHT22;6998;53.608;9.958;2023-07-13T04:50:09;15.50;99.90
13856;DHT22;6998;53.608;9.958;2023-07-13T04:52:37;15.50;99.90
13856;DHT22;6998;53.608;9.958;2023-07-13T04:55:04;15.60;99.90
13856;DHT22;6998;53.608;9.958;2023-07-13T04:57:31;15.60;99.90
13856;DHT22;6998;53.608;9.958;2023-07-13T04:59:59;15.70;99.90
13856;DHT22;6998;53.608;9.958;2023-07-13T05:02:26;15.80;99.90
13856;DHT22;6998;53.608;9.958;2023-07-13T05:04:55;15.80;99.90
13856;DHT22;6998;53.608;9.958;2023-07-13T05:07:22;15.90;99.90
13856;DHT22;6998;53.608;9.958;2023-07-13T05:09:48;15.90;99.90
13856;DHT22;6998;53.608;9.958;2023-07-13T05:12:15;16.00;99.90
13856;DHT22;6998;53.608;9.958;2023-07-13T05:14:42;16.10;99.90
13856;DHT22;6998;53.608;9.958;2023-07-13T05:17:09;16.30;99.90
13856;DHT22;6998;53.608;9.958;2023-07-13T05:19:36;16.50;99.90
13856;DHT22;6998;53.608;9.958;2023-07-13T05:22:04;16.60;99.90
13856;DHT22;6998;53.608;9.958;2023-07-13T05:24:32;16.70;99.90
13856;DHT22;6998;53.608;9.958;2023-07-13T05:26:59;16.90;99.90
13856;DHT22;6998;53.608;9.958;2023-07-13T05:29:26;17.00;99.90
13856;DHT22;6998;53.608;9.958;2023-07-13T05:31:52;17.10;99.90
13856;DHT22;6998;53.608;9.958;2023-07-13T05:34:19;17.20;99.90
13856;DHT22;6998;53.608;9.958;2023-07-13T05:36:46;17.20;99.90
13856;DHT22;6998;53.608;9.958;2023-07-13T05:39:15;17.20;99.90
13856;DHT22;6998;53.608;9.958;2023-07-13T05:41:41;17.20;99.90
13856;DHT22;6998;53.608;9.958;2023-07-13T05:44:08;17.20;99.90
13856;DHT22;6998;53.608;9.958;2023-07-13T05:46:35;17.10;99.90
13856;DHT22;6998;53.608;9.958;2023-07-13T05:49:02;17.20;99.90
13856;DHT22;6998;53.608;9.958;2023-07-13T05:51:29;17.20;99.90
13856;DHT22;6998;53.608;9.958;2023-07-13T05:54:02;17.10;99.90
13856;DHT22;6998;53.608;9.958;2023-07-13T05:56:32;17.10;99.90
13856;DHT22;6998;53.608;9.958;2023-07-13T05:58:58;17.20;99.90
13856;DHT22;6998;53.608;9.958;2023-07-13T06:01:26;17.10;99.90
13856;DHT22;6998;53.608;9.958;2023-07-13T06:03:52;17.10;99.90
13856;DHT22;6998;53.608;9.958;2023-07-13T06:06:19;17.20;99.90
13856;DHT22;6998;53.608;9.958;2023-07-13T06:08:49;17.10;99.90
13856;DHT22;6998;53.608;9.958;2023-07-13T06:11:17;17.10;99.90
13856;DHT22;6998;53.608;9.958;2023-07-13T06:13:46;17.10;99.90
13856;DHT22;6998;53.608;9.958;2023-07-13T06:16:13;17.20;99.90
13856;DHT22;6998;53.608;9.958;2023-07-13T06:18:41;17.30;99.90
13856;DHT22;6998;53.608;9.958;2023-07-13T06:21:15;17.40;99.90
13856;DHT22;6998;53.608;9.958;2023-07-13T06:23:43;17.40;99.90
13856;DHT22;6998;53.608;9.958;2023-07-13T06:26:11;17.40;99.90
13856;DHT22;6998;53.608;9.958;2023-07-13T06:28:38;17.40;99.90
13856;DHT22;6998;53.608;9.958;2023-07-13T06:31:08;17.40;99.90
13856;DHT22;6998;53.608;9.958;2023-07-13T06:33:36;17.50;99.90
13856;DHT22;6998;53.608;9.958;2023-07-13T06:36:04;17.60;99.90
13856;DHT22;6998;53.608;9.958;2023-07-13T06:38:31;17.80;99.90
13856;DHT22;6998;53.608;9.958;2023-07-13T06:40:58;17.80;99.90
13856;DHT22;6998;53.608;9.958;2023-07-13T06:43:24;17.90;99.90
13856;DHT22;6998;53.608;9.958;2023-07-13T06:45:55;18.00;99.90
13856;DHT22;6998;53.608;9.958;2023-07-13T06:48:23;18.20;99.90
13856;DHT22;6998;53.608;9.958;2023-07-13T06:50:50;18.30;99.90
13856;DHT22;6998;53.608;9.958;2023-07-13T06:53:19;18.30;99.90
13856;DHT22;6998;53.608;9.958;2023-07-13T06:55:48;18.30;99.90
13856;DHT22;6998;53.608;9.958;2023-07-13T06:58:15;18.40;99.90
13856;DHT22;6998;53.608;9.958;2023-07-13T07:00:43;18.40;99.90
13856;DHT22;6998;53.608;9.958;2023-07-13T07:03:10;18.50;99.90
13856;DHT22;6998;53.608;9.958;2023-07-13T07:05:38;18.50;99.90
13856;DHT22;6998;53.608;9.958;2023-07-13T07:08:05;18.50;99.90
13856;DHT22;6998;53.608;9.958;2023-07-13T07:10:33;18.60;99.90
13856;DHT22;6998;53.608;9.958;2023-07-13T07:13:00;18.60;99.90
13856;DHT22;6998;53.608;9.958;2023-07-13T07:15:29;18.70;99.90
13856;DHT22;6998;53.608;9.958;2023-07-13T07:17:56;18.90;99.90
13856;DHT22;6998;53.608;9.958;2023-07-13T07:20:23;19.10;99.90
13856;DHT22;6998;53.608;9.958;2023-07-13T07:22:51;19.20;99.90
13856;DHT22;6998;53.608;9.958;2023-07-13T07:25:18;19.10;99.90
13856;DHT22;6998;53.608;9.958;2023-07-13T07:27:46;19.20;99.90
13856;DHT22;6998;53.608;9.958;2023-07-13T07:30:13;19.20;99.90
13856;DHT22;6998;53.608;9.958;2023-07-13T07:32:40;19.00;99.90
13856;DHT22;6998;53.608;9.958;2023-07-13T07:35:08;19.20;99.90
13856;DHT22;6998;53.608;9.958;2023-07-13T07:37:35;19.30;99.90
13856;DHT22;6998;53.608;9.958;2023-07-13T07:40:05;19.50;99.90
13856;DHT22;6998;53.608;9.958;2023-07-13T07:42:32;19.70;99.90
13856;DHT22;6998;53.608;9.958;2023-07-13T07:44:59;19.70;99.90
13856;DHT22;6998;53.608;9.958;2023-07-13T07:47:26;19.80;99.90
13856;DHT22;6998;53.608;9.958;2023-07-13T07:49:53;19.90;99.90
13856;DHT22;6998;53.608;9.958;2023-07-13T07:52:20;20.00;99.90
13856;DHT22;6998;53.608;9.958;2023-07-13T07:54:48;20.00;99.90
13856;DHT22;6998;53.608;9.958;2023-07-13T07:57:16;20.00;99.90
13856;DHT22;6998;53.608;9.958;2023-07-13T07:59:43;19.90;99.90
13856;DHT22;6998;53.608;9.958;2023-07-13T08:02:10;20.00;99.90
13856;DHT22;6998;53.608;9.958;2023-07-13T08:04:40;20.20;99.90
13856;DHT22;6998;53.608;9.958;2023-07-13T08:07:08;20.40;99.90
13856;DHT22;6998;53.608;9.958;2023-07-13T08:09:38;20.60;99.90
13856;DHT22;6998;53.608;9.958;2023-07-13T08:12:05;20.90;99.90
13856;DHT22;6998;53.608;9.958;2023-07-13T08:14:33;21.10;99.90
13856;DHT22;6998;53.608;9.958;2023-07-13T08:17:00;21.30;99.90
13856;DHT22;6998;53.608;9.958;2023-07-13T08:19:27;21.50;99.90
13856;DHT22;6998;53.608;9.958;2023-07-13T08:21:54;21.60;99.90
13856;DHT22;6998;53.608;9.958;2023-07-13T08:24:22;21.70;99.90
13856;DHT22;6998;53.608;9.958;2023-07-13T08:26:48;21.80;99.90
13856;DHT22;6998;53.608;9.958;2023-07-13T08:29:18;21.80;99.90
13856;DHT22;6998;53.608;9.958;2023-07-13T08:31:46;21.60;99.90
13856;DHT22;6998;53.608;9.958;2023-07-13T08:34:13;21.40;99.90
13856;DHT22;6998;53.608;9.958;2023-07-13T08:36:40;21.30;99.90
13856;DHT22;6998;53.608;9.958;2023-07-13T08:39:07;21.40;99.90
13856;DHT22;6998;53.608;9.958;2023-07-13T08:41:34;21.50;99.90
13856;DHT22;6998;53.608;9.958;2023-07-13T08:44:03;21.30;99.90
13856;DHT22;6998;53.608;9.958;2023-07-13T08:46:36;21.30;99.90
13856;DHT22;6998;53.608;9.958;2023-07-13T08:49:08;21.20;99.90
13856;DHT22;6998;53.608;9.958;2023-07-13T08:51:42;21.00;99.90
13856;DHT22;6998;53.608;9.958;2023-07-13T08:54:18;20.90;99.90
13856;DHT22;6998;53.608;9.958;2023-07-13T08:56:46;21.00;99.90
13856;DHT22;6998;53.608;9.958;2023-07-13T08:59:16;21.10;99.90
13856;DHT22;6998;53.608;9.958;2023-07-13T09:02:10;21.30;99.90
13856;DHT22;6998;53.608;9.958;2023-07-13T09:04:47;21.50;99.90
13856;DHT22;6998;53.608;9.958;2023-07-13T09:07:21;21.90;99.90
13856;DHT22;6998;53.608;9.958;2023-07-13T09:09:58;22.30;99.90
13856;DHT22;6998;53.608;9.958;2023-07-13T09:12:34;22.50;99.90
13856;DHT22;6998;53.608;9.958;2023-07-13T09:15:04;22.40;99.90
13856;DHT22;6998;53.608;9.958;2023-07-13T09:17:36;22.30;99.90
13856;DHT22;6998;53.608;9.958;2023-07-13T09:20:12;21.90;99.90
13856;DHT22;6998;53.608;9.958;2023-07-13T09:22:43;21.70;99.90
13856;DHT22;6998;53.608;9.958;2023-07-13T09:25:30;21.80;99.90
13856;DHT22;6998;53.608;9.958;2023-07-13T09:28:11;21.70;99.90
13856;DHT22;6998;53.608;9.958;2023-07-13T09:30:46;22.00;99.90
13856;DHT22;6998;53.608;9.958;2023-07-13T09:33:17;22.40;99.90
13856;DHT22;6998;53.608;9.958;2023-07-13T09:35:45;22.50;99.90
13856;DHT22;6998;53.608;9.958;2023-07-13T09:38:14;22.80;99.90
13856;DHT22;6998;53.608;9.958;2023-07-13T09:40:57;23.00;99.90
13856;DHT22;6998;53.608;9.958;2023-07-13T09:43:25;23.30;99.90
13856;DHT22;6998;53.608;9.958;2023-07-13T09:45:54;23.70;99.90
13856;DHT22;6998;53.608;9.958;2023-07-13T09:48:22;23.90;99.90
13856;DHT22;6998;53.608;9.958;2023-07-13T09:50:54;23.90;99.90
13856;DHT22;6998;53.608;9.958;2023-07-13T09:53:22;23.90;99.90
13856;DHT22;6998;53.608;9.958;2023-07-13T09:55:49;24.10;99.90
13856;DHT22;6998;53.608;9.958;2023-07-13T09:58:19;24.30;99.90
13856;DHT22;6998;53.608;9.958;2023-07-13T10:00:55;24.40;99.90
13856;DHT22;6998;53.608;9.958;2023-07-13T10:03:25;24.40;99.90
13856;DHT22;6998;53.608;9.958;2023-07-13T10:05:54;24.70;99.90
13856;DHT22;6998;53.608;9.958;2023-07-13T10:08:24;24.80;99.90
13856;DHT22;6998;53.608;9.958;2023-07-13T10:10:58;24.90;99.90
13856;DHT22;6998;53.608;9.958;2023-07-13T10:13:29;24.70;99.90
13856;DHT22;6998;53.608;9.958;2023-07-13T10:15:59;24.30;99.90
13856;DHT22;6998;53.608;9.958;2023-07-13T10:18:26;24.20;99.90
13856;DHT22;6998;53.608;9.958;2023-07-13T10:21:08;23.90;99.90
13856;DHT22;6998;53.608;9.958;2023-07-13T10:23:36;23.60;99.90
13856;DHT22;6998;53.608;9.958;2023-07-13T10:26:05;23.40;99.90
13856;DHT22;6998;53.608;9.958;2023-07-13T10:28:36;23.50;99.90
13856;DHT22;6998;53.608;9.958;2023-07-13T10:31:08;23.50;99.90
13856;DHT22;6998;53.608;9.958;2023-07-13T10:33:39;23.70;99.90
13856;DHT22;6998;53.608;9.958;2023-07-13T10:36:14;24.00;99.90
13856;DHT22;6998;53.608;9.958;2023-07-13T10:38:55;24.00;99.90
13856;DHT22;6998;53.608;9.958;2023-07-13T10:41:38;24.00;99.90
13856;DHT22;6998;53.608;9.958;2023-07-13T10:44:12;24.40;99.90
13856;DHT22;6998;53.608;9.958;2023-07-13T10:46:45;24.60;99.90
13856;DHT22;6998;53.608;9.958;2023-07-13T10:49:13;24.70;99.90
13856;DHT22;6998;53.608;9.958;2023-07-13T10:51:42;25.00;99.90
13856;DHT22;6998;53.608;9.958;2023-07-13T10:54:16;24.80;99.90
13856;DHT22;6998;53.608;9.958;2023-07-13T10:56:45;24.80;99.90
13856;DHT22;6998;53.608;9.958;2023-07-13T10:59:15;24.60;99.90
13856;DHT22;6998;53.608;9.958;2023-07-13T11:01:55;24.70;99.90
13856;DHT22;6998;53.608;9.958;2023-07-13T11:04:24;25.10;99.90
13856;DHT22;6998;53.608;9.958;2023-07-13T11:07:16;25.10;99.90
13856;DHT22;6998;53.608;9.958;2023-07-13T11:09:56;25.10;99.90
13856;DHT22;6998;53.608;9.958;2023-07-13T11:12:53;24.80;99.90
13856;DHT22;6998;53.608;9.958;2023-07-13T11:15:38;25.00;99.90
13856;DHT22;6998;53.608;9.958;2023-07-13T11:18:21;25.20;99.90
13856;DHT22;6998;53.608;9.958;2023-07-13T11:20:49;25.30;99.90
13856;DHT22;6998;53.608;9.958;2023-07-13T11:26:40;25.30;99.90
13856;DHT22;6998;53.608;9.958;2023-07-13T11:29:32;25.10;99.90
13856;DHT22;6998;53.608;9.958;2023-07-13T11:32:22;25.20;99.90
13856;DHT22;6998;53.608;9.958;2023-07-13T11:34:55;25.20;99.90
13856;DHT22;6998;53.608;9.958;2023-07-13T11:37:25;25.50;99.90
13856;DHT22;6998;53.608;9.958;2023-07-13T11:39:55;25.60;99.90
13856;DHT22;6998;53.608;9.958;2023-07-13T11:42:23;25.20;99.90
13856;DHT22;6998;53.608;9.958;2023-07-13T11:44:52;24.80;99.90
13856;DHT22;6998;53.608;9.958;2023-07-13T11:47:22;24.90;99.90
13856;DHT22;6998;53.608;9.958;2023-07-13T11:49:53;25.00;99.90
13856;DHT22;6998;53.608;9.958;2023-07-13T11:52:23;25.00;99.90
13856;DHT22;6998;53.608;9.958;2023-07-13T11:54:53;24.70;99.90
13856;DHT22;6998;53.608;9.958;2023-07-13T11:57:26;24.50;99.90
13856;DHT22;6998;53.608;9.958;2023-07-13T11:59:59;24.50;99.90
13856;DHT22;6998;53.608;9.958;2023-07-13T12:02:29;24.60;99.90
13856;DHT22;6998;53.608;9.958;2023-07-13T12:04:58;24.70;99.90
13856;DHT22;6998;53.608;9.958;2023-07-13T12:07:28;24.90;99.90
13856;DHT22;6998;53.608;9.958;2023-07-13T12:10:00;24.90;99.90
13856;DHT22;6998;53.608;9.958;2023-07-13T12:12:29;24.80;99.90
13856;DHT22;6998;53.608;9.958;2023-07-13T12:14:57;24.00;99.90
13856;DHT22;6998;53.608;9.958;2023-07-13T12:17:24;23.00;99.90
13856;DHT22;6998;53.608;9.958;2023-07-13T12:19:52;21.90;99.90
13856;DHT22;6998;53.608;9.958;2023-07-13T12:22:20;20.70;99.90
13856;DHT22;6998;53.608;9.958;2023-07-13T12:24:50;19.60;99.90
13856;DHT22;6998;53.608;9.958;2023-07-13T12:27:20;19.00;99.90
13856;DHT22;6998;53.608;9.958;2023-07-13T12:29:58;18.60;99.90
13856;DHT22;6998;53.608;9.958;2023-07-13T12:32:26;18.30;99.90
13856;DHT22;6998;53.608;9.958;2023-07-13T12:34:56;18.20;99.90
13856;DHT22;6998;53.608;9.958;2023-07-13T12:37:24;18.30;99.90
13856;DHT22;6998;53.608;9.958;2023-07-13T12:39:53;18.50;99.90
13856;DHT22;6998;53.608;9.958;2023-07-13T12:42:24;18.80;99.90
13856;DHT22;6998;53.608;9.958;2023-07-13T12:44:57;19.10;99.90
13856;DHT22;6998;53.608;9.958;2023-07-13T12:47:38;19.50;99.90
13856;DHT22;6998;53.608;9.958;2023-07-13T12:50:16;19.90;99.90
13856;DHT22;6998;53.608;9.958;2023-07-13T12:52:51;20.50;99.90
13856;DHT22;6998;53.608;9.958;2023-07-13T12:55:19;20.80;99.90
13856;DHT22;6998;53.608;9.958;2023-07-13T12:58:37;21.00;99.90
13856;DHT22;6998;53.608;9.958;2023-07-13T13:01:28;21.30;99.90
13856;DHT22;6998;53.608;9.958;2023-07-13T13:03:55;21.30;99.90
13856;DHT22;6998;53.608;9.958;2023-07-13T13:06:24;21.40;99.90
13856;DHT22;6998;53.608;9.958;2023-07-13T13:08:54;21.30;99.90
13856;DHT22;6998;53.608;9.958;2023-07-13T13:11:22;21.30;99.90
13856;DHT22;6998;53.608;9.958;2023-07-13T13:13:50;21.20;99.90
13856;DHT22;6998;53.608;9.958;2023-07-13T13:16:21;21.20;99.90
13856;DHT22;6998;53.608;9.958;2023-07-13T13:18:51;21.20;99.90
13856;DHT22;6998;53.608;9.958;2023-07-13T13:21:18;21.00;99.90
13856;DHT22;6998;53.608;9.958;2023-07-13T13:23:46;21.00;99.90
13856;DHT22;6998;53.608;9.958;2023-07-13T13:26:14;21.00;99.90
13856;DHT22;6998;53.608;9.958;2023-07-13T13:28:45;21.20;99.90
13856;DHT22;6998;53.608;9.958;2023-07-13T13:31:13;21.40;99.90
13856;DHT22;6998;53.608;9.958;2023-07-13T13:33:41;21.60;99.90
13856;DHT22;6998;53.608;9.958;2023-07-13T13:36:15;21.60;99.90
13856;DHT22;6998;53.608;9.958;2023-07-13T13:38:43;21.70;99.90
13856;DHT22;6998;53.608;9.958;2023-07-13T13:41:10;21.80;99.90
13856;DHT22;6998;53.608;9.958;2023-07-13T13:43:39;22.10;99.90
13856;DHT22;6998;53.608;9.958;2023-07-13T13:46:14;22.30;99.90
13856;DHT22;6998;53.608;9.958;2023-07-13T13:48:41;22.40;99.90
13856;DHT22;6998;53.608;9.958;2023-07-13T13:51:16;22.50;99.90
13856;DHT22;6998;53.608;9.958;2023-07-13T13:53:44;22.40;99.90
13856;DHT22;6998;53.608;9.958;2023-07-13T13:56:11;22.30;99.90
13856;DHT22;6998;53.608;9.958;2023-07-13T13:58:38;22.20;99.90
13856;DHT22;6998;53.608;9.958;2023-07-13T14:01:12;22.10;99.90
13856;DHT22;6998;53.608;9.958;2023-07-13T14:03:39;22.10;99.90
13856;DHT22;6998;53.608;9.958;2023-07-13T14:06:08;22.10;99.90
13856;DHT22;6998;53.608;9.958;2023-07-13T14:08:39;22.20;99.90
13856;DHT22;6998;53.608;9.958;2023-07-13T14:11:08;22.50;99.90
13856;DHT22;6998;53.608;9.958;2023-07-13T14:13:39;22.90;99.90
13856;DHT22;6998;53.608;9.958;2023-07-13T14:16:10;23.30;99.90
13856;DHT22;6998;53.608;9.958;2023-07-13T14:18:37;23.50;99.90
13856;DHT22;6998;53.608;9.958;2023-07-13T14:21:11;23.70;99.90
13856;DHT22;6998;53.608;9.958;2023-07-13T14:23:39;23.50;99.90
13856;DHT22;6998;53.608;9.958;2023-07-13T14:26:10;23.10;99.90
13856;DHT22;6998;53.608;9.958;2023-07-13T14:28:40;22.80;99.90
13856;DHT22;6998;53.608;9.958;2023-07-13T14:31:08;22.70;99.90
13856;DHT22;6998;53.608;9.958;2023-07-13T14:33:35;22.70;99.90
13856;DHT22;6998;53.608;9.958;2023-07-13T14:36:02;23.00;99.90
13856;DHT22;6998;53.608;9.958;2023-07-13T14:38:29;23.30;99.90
13856;DHT22;6998;53.608;9.958;2023-07-13T14:40:58;23.50;99.90
13856;DHT22;6998;53.608;9.958;2023-07-13T14:43:25;23.40;99.90
13856;DHT22;6998;53.608;9.958;2023-07-13T14:45:53;23.20;99.90
13856;DHT22;6998;53.608;9.958;2023-07-13T14:48:22;22.80;99.90
13856;DHT22;6998;53.608;9.958;2023-07-13T14:50:53;22.70;99.90
13856;DHT22;6998;53.608;9.958;2023-07-13T14:53:20;22.70;99.90
13856;DHT22;6998;53.608;9.958;2023-07-13T14:55:47;22.80;99.90
13856;DHT22;6998;53.608;9.958;2023-07-13T14:58:15;22.60;99.90
13856;DHT22;6998;53.608;9.958;2023-07-13T15:00:42;22.50;99.90
13856;DHT22;6998;53.608;9.958;2023-07-13T15:03:19;22.50;99.90
13856;DHT22;6998;53.608;9.958;2023-07-13T15:05:48;22.20;99.90
13856;DHT22;6998;53.608;9.958;2023-07-13T15:08:15;22.20;99.90
13856;DHT22;6998;53.608;9.958;2023-07-13T15:10:42;22.30;99.90
13856;DHT22;6998;53.608;9.958;2023-07-13T15:13:17;22.40;99.90
13856;DHT22;6998;53.608;9.958;2023-07-13T15:15:46;22.80;99.90
13856;DHT22;6998;53.608;9.958;2023-07-13T15:18:16;23.00;99.90
13856;DHT22;6998;53.608;9.958;2023-07-13T15:20:44;23.10;99.90
13856;DHT22;6998;53.608;9.958;2023-07-13T15:23:12;22.80;99.90
13856;DHT22;6998;53.608;9.958;2023-07-13T15:25:40;22.50;99.90
13856;DHT22;6998;53.608;9.958;2023-07-13T15:28:07;22.40;99.90
13856;DHT22;6998;53.608;9.958;2023-07-13T15:30:39;22.30;99.90
13856;DHT22;6998;53.608;9.958;2023-07-13T15:33:12;22.30;99.90
13856;DHT22;6998;53.608;9.958;2023-07-13T15:35:40;22.20;99.90
13856;DHT22;6998;53.608;9.958;2023-07-13T15:38:13;22.10;99.90
13856;DHT22;6998;53.608;9.958;2023-07-13T15:40:41;22.30;99.90
13856;DHT22;6998;53.608;9.958;2023-07-13T15:43:10;22.40;99.90
13856;DHT22;6998;53.608;9.958;2023-07-13T15:45:40;22.60;99.90
13856;DHT22;6998;53.608;9.958;2023-07-13T15:48:13;22.80;99.90
13856;DHT22;6998;53.608;9.958;2023-07-13T15:50:43;23.10;99.90
13856;DHT22;6998;53.608;9.958;2023-07-13T15:53:11;23.20;99.90
13856;DHT22;6998;53.608;9.958;2023-07-13T15:55:38;23.40;99.90
13856;DHT22;6998;53.608;9.958;2023-07-13T15:58:08;23.40;99.90
13856;DHT22;6998;53.608;9.958;2023-07-13T16:00:36;23.50;99.90
13856;DHT22;6998;53.608;9.958;2023-07-13T16:03:04;23.50;99.90